Airfield :
LOGIN :

Register | Disclaimer

   EN    FR    IT 

 










Legend :    VFR   Marginal VFR   IFR   Intensive IFR   Very Intensive IFR
Visi :
Ceiling :
>= 8 km
>= 3000ft
5 to 8 km
1000 to 3000 ft
1500m to 5 km
500 to 1000 ft
800 to 1500m
200 to 500 ft
< 800m
< 200 ft
Symbols :   Thunderstorms  Fog  Heavy snow  Heavy precipitations  Wind > 20 kt
SIGMETs :     Misc.  Thunderstorms  Icing  Turbulence  Mountain Waves  Volcanic Ashes







- Airport Elevation : 204 ft
- IATA code : AGF
- Download approach charts


LFBA - Agen

CURRENT METAR :
  • 182100Z AUTO 00000KT 2500 0800 R29/1300D BCFG NSC 01/M00 Q1025 BECMG 0300 FG VV///

EXPIRED METARs :
  • 182030Z AUTO 00000KT 4400 1100 R29/P2000 BR NSC 01/00 Q1024 TEMPO 9999 NSW
  • 182000Z AUTO 00000KT CAVOK 01/01 Q1025 NOSIG
  • 181930Z AUTO 00000KT 8000 NSC 02/01 Q1024 NOSIG
  • 181900Z AUTO 00000KT CAVOK 03/02 Q1024 NOSIG
  • 181830Z AUTO 00000KT CAVOK 03/02 Q1024 NOSIG

TAF AMD TAF LFBA
Valid from the 18 at 20:00 until the 19 at 03:00 UTC


182039Z 1820/1903 32004KT 3000 BR NSC
BECMG 1820/1822 0300 FG VV///
No reported NOTAMs for that airfield.



MET'MAP, your aeronautical weather chart ! - Copyright ORBIFLY December 2007 - Disclaimer

ORBIFLY MET'MAP TEAM :

Programming & Development : Alexandra Zaïnal
Concept & Development : Baudouin d'Aumeries
Co-Development & Prog : Marc-Olivier Méhu
Technical & hardware support : Manuel Goepfert

Contact : metmap@orbifly.com




SOURCES & CREDITS :

   NOAA